createdAt,value
2023-05-05T00:01:35.480Z,100.00
2023-05-05T00:04:02.785Z,100.00
2023-05-05T00:06:29.774Z,100.00
2023-05-05T00:08:56.757Z,100.00
2023-05-05T00:11:24.047Z,100.00
2023-05-05T00:13:51.614Z,100.00
2023-05-05T00:16:19.061Z,100.00
2023-05-05T00:18:46.020Z,100.00
2023-05-05T00:21:13.430Z,100.00
2023-05-05T00:23:40.520Z,100.00
2023-05-05T00:26:08.006Z,100.00
2023-05-05T00:28:35.050Z,100.00
2023-05-05T00:31:02.441Z,100.00
2023-05-05T00:33:29.444Z,100.00
2023-05-05T00:35:56.712Z,100.00
2023-05-05T00:38:23.659Z,100.00
2023-05-05T00:40:50.909Z,100.00
2023-05-05T00:43:17.924Z,100.00
2023-05-05T00:45:48.101Z,100.00
2023-05-05T00:48:17.120Z,100.00
2023-05-05T00:50:45.352Z,100.00
2023-05-05T00:53:12.365Z,100.00
2023-05-05T00:55:39.621Z,100.00
2023-05-05T00:58:06.670Z,100.00
2023-05-05T01:00:34.859Z,100.00
2023-05-05T01:03:01.956Z,100.00
2023-05-05T01:05:47.356Z,100.00
2023-05-05T01:08:53.592Z,100.00
2023-05-05T01:11:49.856Z,100.00
2023-05-05T01:14:23.218Z,100.00
2023-05-05T01:16:57.382Z,100.00
2023-05-05T01:19:46.430Z,100.00
2023-05-05T01:22:15.456Z,100.00
2023-05-05T01:25:11.879Z,100.00
2023-05-05T01:27:52.832Z,100.00
2023-05-05T01:30:32.197Z,100.00
2023-05-05T01:33:04.625Z,100.00
2023-05-05T01:35:38.019Z,100.00
2023-05-05T01:38:14.513Z,100.00
2023-05-05T01:40:47.205Z,100.00
2023-05-05T01:43:16.400Z,100.00
2023-05-05T01:45:45.030Z,100.00
2023-05-05T01:48:12.852Z,100.00
2023-05-05T01:50:44.195Z,100.00
2023-05-05T01:53:12.106Z,100.00
2023-05-05T01:55:39.525Z,100.00
2023-05-05T01:58:07.761Z,100.00
2023-05-05T02:00:35.126Z,100.00
2023-05-05T02:03:04.798Z,100.00
2023-05-05T02:05:33.063Z,100.00
2023-05-05T02:08:00.617Z,100.00
2023-05-05T02:10:28.520Z,100.00
2023-05-05T02:12:56.068Z,100.00
2023-05-05T02:15:23.949Z,100.00
2023-05-05T02:17:54.919Z,100.00
2023-05-05T02:20:22.808Z,100.00
2023-05-05T02:22:50.352Z,100.00
2023-05-05T02:25:20.133Z,100.00
2023-05-05T02:27:48.878Z,100.00
2023-05-05T02:30:18.437Z,100.00
2023-05-05T02:32:54.209Z,100.00
2023-05-05T02:35:24.653Z,100.00
2023-05-05T02:37:59.546Z,100.00
2023-05-05T02:40:26.882Z,100.00
2023-05-05T02:42:56.474Z,100.00
2023-05-05T02:45:23.639Z,100.00
2023-05-05T02:47:51.038Z,100.00
2023-05-05T02:50:18.589Z,100.00
2023-05-05T02:52:46.411Z,100.00
2023-05-05T02:55:13.866Z,100.00
2023-05-05T02:57:52.182Z,100.00
2023-05-05T03:00:38.759Z,100.00
2023-05-05T03:03:17.991Z,100.00
2023-05-05T03:05:51.930Z,100.00
2023-05-05T03:08:44.062Z,100.00
2023-05-05T03:11:33.538Z,100.00
2023-05-05T03:14:17.281Z,100.00
2023-05-05T03:16:46.276Z,100.00
2023-05-05T03:19:16.960Z,100.00
2023-05-05T03:21:44.467Z,100.00
2023-05-05T03:24:16.226Z,100.00
2023-05-05T03:26:44.270Z,100.00
2023-05-05T03:29:12.537Z,100.00
2023-05-05T03:31:39.979Z,100.00
2023-05-05T03:34:08.049Z,100.00
2023-05-05T03:36:36.207Z,100.00
2023-05-05T03:39:03.838Z,100.00
2023-05-05T03:41:30.936Z,100.00
2023-05-05T03:43:58.219Z,100.00
2023-05-05T03:46:25.660Z,100.00
2023-05-05T03:48:52.897Z,100.00
2023-05-05T03:51:19.937Z,100.00
2023-05-05T03:53:47.668Z,100.00
2023-05-05T03:56:14.593Z,100.00
2023-05-05T03:58:42.317Z,100.00
2023-05-05T04:01:09.573Z,100.00
2023-05-05T04:03:36.878Z,100.00
2023-05-05T04:06:03.978Z,100.00
2023-05-05T04:08:31.413Z,100.00
2023-05-05T04:10:58.497Z,100.00
2023-05-05T04:13:26.054Z,100.00
2023-05-05T04:15:53.123Z,100.00
2023-05-05T04:18:20.472Z,100.00
2023-05-05T04:20:47.767Z,100.00
2023-05-05T04:23:15.166Z,100.00
2023-05-05T04:25:42.455Z,100.00
2023-05-05T04:28:10.296Z,100.00
2023-05-05T04:30:38.162Z,100.00
2023-05-05T04:33:05.671Z,100.00
2023-05-05T04:35:32.820Z,100.00
2023-05-05T04:38:00.873Z,99.19
2023-05-05T04:40:28.053Z,98.04
2023-05-05T04:42:55.528Z,97.40
2023-05-05T04:45:22.753Z,98.65
2023-05-05T04:47:50.259Z,96.77
2023-05-05T04:50:17.298Z,95.16
2023-05-05T04:52:44.661Z,97.06
2023-05-05T04:55:11.842Z,97.56
2023-05-05T04:57:39.488Z,99.80
2023-05-05T05:00:08.009Z,96.17
2023-05-05T05:02:37.892Z,92.20
2023-05-05T05:05:55.497Z,90.71
2023-05-05T05:08:23.008Z,89.10
2023-05-05T05:10:50.117Z,89.25
2023-05-05T05:13:17.740Z,89.31
2023-05-05T05:15:45.780Z,88.87
2023-05-05T05:22:10.786Z,88.75
2023-05-05T05:25:43.710Z,91.78
2023-05-05T05:28:11.409Z,94.13
2023-05-05T05:31:41.226Z,94.52
2023-05-05T05:34:13.826Z,94.88
2023-05-05T05:36:41.069Z,94.02
2023-05-05T05:39:08.924Z,91.84
2023-05-05T05:46:01.896Z,89.24
2023-05-05T05:48:29.735Z,87.81
2023-05-05T05:50:57.172Z,87.58
2023-05-05T05:53:24.894Z,88.67
2023-05-05T05:55:51.926Z,84.72
2023-05-05T05:58:19.626Z,84.56
2023-05-05T06:02:01.378Z,83.83
2023-05-05T06:04:29.027Z,82.61
2023-05-05T06:06:56.571Z,85.61
2023-05-05T06:09:24.361Z,86.03
2023-05-05T06:11:51.648Z,83.34
2023-05-05T06:14:20.138Z,83.12
2023-05-05T06:16:50.413Z,83.65
2023-05-05T06:19:18.038Z,82.22
2023-05-05T06:21:45.100Z,84.05
2023-05-05T06:24:12.651Z,81.97
2023-05-05T06:26:44.681Z,81.25
2023-05-05T06:29:12.433Z,79.45
2023-05-05T06:31:39.793Z,75.33
2023-05-05T06:34:11.055Z,74.66
2023-05-05T06:36:38.141Z,75.91
2023-05-05T06:39:05.566Z,75.56
2023-05-05T06:41:32.568Z,76.20
2023-05-05T06:44:00.116Z,77.38
2023-05-05T06:46:27.262Z,78.72
2023-05-05T06:48:54.689Z,78.27
2023-05-05T06:51:22.907Z,77.89
2023-05-05T06:53:50.538Z,77.18
2023-05-05T06:56:21.074Z,75.34
2023-05-05T06:58:48.419Z,73.10
2023-05-05T07:01:17.630Z,71.14
2023-05-05T07:03:45.331Z,71.72
2023-05-05T07:06:12.763Z,69.70
2023-05-05T07:08:40.192Z,72.74
2023-05-05T07:11:07.285Z,71.98
2023-05-05T07:13:34.564Z,69.77
2023-05-05T07:16:01.697Z,68.58
2023-05-05T07:18:29.073Z,71.06
2023-05-05T07:20:56.683Z,71.81
2023-05-05T07:23:24.258Z,69.32
2023-05-05T07:25:51.358Z,69.00
2023-05-05T07:28:18.906Z,69.46
2023-05-05T07:31:02.601Z,66.96
2023-05-05T07:33:30.687Z,67.32
2023-05-05T07:35:57.836Z,66.46
2023-05-05T07:38:26.161Z,65.04
2023-05-05T07:40:53.158Z,65.00
2023-05-05T07:43:20.700Z,64.80
2023-05-05T07:45:47.953Z,63.79
2023-05-05T07:48:15.460Z,65.46
2023-05-05T07:50:42.925Z,64.09
2023-05-05T07:53:14.824Z,60.85
2023-05-05T07:55:42.503Z,59.82
2023-05-05T07:58:11.252Z,58.88
2023-05-05T08:00:38.932Z,60.11
2023-05-05T08:03:08.988Z,61.87
2023-05-05T08:05:38.429Z,60.68
2023-05-05T08:08:08.232Z,60.74
2023-05-05T08:10:35.330Z,64.07
2023-05-05T08:13:03.192Z,63.71
2023-05-05T08:15:30.879Z,61.55
2023-05-05T08:17:58.540Z,60.85
2023-05-05T08:20:28.997Z,60.88
2023-05-05T08:22:56.869Z,60.84
2023-05-05T08:25:24.672Z,59.31
2023-05-05T08:27:52.410Z,61.35
2023-05-05T08:30:21.642Z,60.44
2023-05-05T08:32:49.189Z,57.81
2023-05-05T08:35:16.476Z,57.51
2023-05-05T08:37:45.080Z,59.66
2023-05-05T08:40:15.976Z,58.94
2023-05-05T08:42:45.691Z,56.54
2023-05-05T08:45:12.978Z,58.34
2023-05-05T08:47:40.564Z,57.19
2023-05-05T08:50:21.649Z,56.77
2023-05-05T08:52:51.780Z,56.46
2023-05-05T08:55:33.942Z,60.77
2023-05-05T08:58:05.117Z,57.05
2023-05-05T09:00:47.716Z,58.71
2023-05-05T09:03:16.460Z,58.45
2023-05-05T09:05:44.582Z,59.03
2023-05-05T09:08:12.330Z,58.10
2023-05-05T09:10:43.092Z,56.93
2023-05-05T09:13:16.714Z,57.72
2023-05-05T09:15:56.775Z,56.55
2023-05-05T09:18:24.179Z,56.04
2023-05-05T09:20:51.350Z,53.89
2023-05-05T09:23:20.251Z,56.08
2023-05-05T09:26:03.925Z,54.08
2023-05-05T09:28:32.833Z,51.57
2023-05-05T09:31:16.086Z,49.64
2023-05-05T09:33:44.595Z,50.86
2023-05-05T09:36:12.643Z,48.08
2023-05-05T09:38:40.103Z,48.31
2023-05-05T09:41:07.310Z,46.43
2023-05-05T09:43:52.053Z,45.36
2023-05-05T09:46:19.476Z,45.12
2023-05-05T09:48:46.957Z,45.43
2023-05-05T09:51:14.109Z,44.95
2023-05-05T09:53:42.620Z,48.19
2023-05-05T09:56:10.587Z,47.45
2023-05-05T09:58:38.033Z,47.67
2023-05-05T10:01:05.314Z,47.53
2023-05-05T10:03:33.119Z,47.69
2023-05-05T10:06:01.277Z,49.60
2023-05-05T10:08:34.143Z,49.08
2023-05-05T10:11:07.428Z,48.76
2023-05-05T10:13:42.297Z,48.07
2023-05-05T10:16:10.039Z,46.71
2023-05-05T10:18:40.076Z,47.21
2023-05-05T10:21:08.563Z,47.73
2023-05-05T10:23:58.692Z,45.04
2023-05-05T10:26:27.023Z,44.71
2023-05-05T10:29:02.490Z,46.21
2023-05-05T10:31:53.377Z,41.19
2023-05-05T10:34:38.254Z,42.48
2023-05-05T10:37:07.246Z,44.16
2023-05-05T10:39:37.143Z,44.27
2023-05-05T10:42:04.359Z,45.96
2023-05-05T10:44:33.500Z,46.80
2023-05-05T10:47:00.885Z,45.08
2023-05-05T10:49:56.536Z,42.79
2023-05-05T10:52:32.762Z,43.16
2023-05-05T10:55:21.801Z,44.32
2023-05-05T10:57:53.349Z,44.77
2023-05-05T11:00:39.434Z,42.70
2023-05-05T11:03:18.684Z,42.50
2023-05-05T11:06:05.201Z,41.74
2023-05-05T11:08:33.949Z,41.28
2023-05-05T11:11:02.038Z,40.00
2023-05-05T11:13:29.964Z,40.17
2023-05-05T11:15:58.479Z,38.83
2023-05-05T11:18:36.594Z,39.28
2023-05-05T11:21:04.918Z,39.19
2023-05-05T11:23:32.102Z,40.19
2023-05-05T11:26:00.245Z,41.19
2023-05-05T11:28:31.192Z,38.06
2023-05-05T11:30:59.007Z,38.36
2023-05-05T11:33:34.198Z,38.47
2023-05-05T11:36:28.910Z,37.77
2023-05-05T11:39:12.419Z,37.85
2023-05-05T11:41:49.814Z,38.15
2023-05-05T11:44:17.938Z,37.33
2023-05-05T11:46:51.417Z,37.42
2023-05-05T11:49:31.864Z,35.86
2023-05-05T11:52:06.215Z,35.03
2023-05-05T11:54:35.777Z,33.66
2023-05-05T11:57:08.360Z,34.76
2023-05-05T11:59:37.639Z,34.21
2023-05-05T12:02:05.436Z,33.38
2023-05-05T12:04:33.866Z,33.39
2023-05-05T12:07:02.029Z,33.02
2023-05-05T12:09:29.211Z,33.38
2023-05-05T12:11:58.233Z,33.15
2023-05-05T12:14:36.236Z,32.24
2023-05-05T12:17:10.739Z,32.67
2023-05-05T12:19:45.873Z,32.60
2023-05-05T12:22:25.532Z,32.57
2023-05-05T12:25:01.855Z,32.75
2023-05-05T12:27:29.749Z,32.61
2023-05-05T12:29:57.934Z,32.64
2023-05-05T12:32:28.057Z,31.90
2023-05-05T12:35:00.031Z,32.52
2023-05-05T12:37:28.053Z,32.22
2023-05-05T12:39:55.623Z,32.79
2023-05-05T12:42:23.606Z,31.85
2023-05-05T12:44:51.016Z,32.92
2023-05-05T12:47:32.425Z,33.33
2023-05-05T12:50:00.936Z,33.32
2023-05-05T12:52:45.366Z,33.99
2023-05-05T12:55:13.256Z,34.13
2023-05-05T12:58:02.356Z,33.05
2023-05-05T13:00:29.565Z,34.52
2023-05-05T13:02:57.179Z,35.66
2023-05-05T13:05:44.520Z,35.12
2023-05-05T13:08:14.453Z,35.88
2023-05-05T13:10:59.230Z,35.57
2023-05-05T13:13:27.093Z,36.40
2023-05-05T13:15:54.414Z,34.09
2023-05-05T13:18:21.961Z,34.23
2023-05-05T13:20:49.816Z,33.40
2023-05-05T13:23:17.433Z,34.73
2023-05-05T13:25:45.005Z,33.73
2023-05-05T13:28:12.963Z,33.83
2023-05-05T13:30:42.076Z,33.63
2023-05-05T13:33:10.023Z,33.51
2023-05-05T13:35:37.098Z,32.77
2023-05-05T13:38:04.596Z,32.93
2023-05-05T13:40:31.998Z,33.25
2023-05-05T13:42:59.716Z,32.34
2023-05-05T13:45:26.928Z,32.27
2023-05-05T13:47:54.482Z,32.44
2023-05-05T13:50:21.837Z,32.88
2023-05-05T13:52:49.438Z,32.97
2023-05-05T13:55:17.093Z,31.90
2023-05-05T13:57:44.619Z,31.70
2023-05-05T14:00:12.538Z,31.74
2023-05-05T14:02:40.136Z,31.95
2023-05-05T14:05:08.168Z,32.53
2023-05-05T14:07:36.358Z,31.54
2023-05-05T14:10:03.590Z,30.75
2023-05-05T14:12:30.925Z,30.35
2023-05-05T14:14:58.830Z,30.76
2023-05-05T14:17:26.470Z,30.98
2023-05-05T14:19:53.562Z,30.50
2023-05-05T14:22:21.024Z,30.12
2023-05-05T14:24:48.443Z,30.31
2023-05-05T14:27:16.178Z,28.45
2023-05-05T14:29:43.271Z,28.43
2023-05-05T14:32:11.250Z,28.13
2023-05-05T14:34:38.246Z,28.92
2023-05-05T14:37:05.582Z,29.43
2023-05-05T14:39:32.584Z,28.91
2023-05-05T14:42:00.069Z,29.91
2023-05-05T14:44:27.287Z,30.09
2023-05-05T14:46:54.870Z,31.65
2023-05-05T14:49:21.825Z,31.95
2023-05-05T14:51:49.183Z,31.22
2023-05-05T14:54:27.536Z,31.08
2023-05-05T14:56:56.448Z,33.29
2023-05-05T14:59:23.762Z,33.85
2023-05-05T15:01:51.256Z,34.99
2023-05-05T15:04:18.325Z,35.18
2023-05-05T15:06:46.097Z,35.44
2023-05-05T15:09:13.500Z,36.16
2023-05-05T15:11:45.169Z,35.54
2023-05-05T15:14:12.472Z,34.33
2023-05-05T15:16:40.125Z,35.37
2023-05-05T15:19:07.628Z,36.73
2023-05-05T15:21:34.967Z,36.50
2023-05-05T15:24:02.104Z,34.47
2023-05-05T15:26:29.581Z,36.08
2023-05-05T15:28:56.906Z,36.76
2023-05-05T15:31:24.368Z,36.19
2023-05-05T15:33:51.410Z,34.27
2023-05-05T15:36:22.796Z,35.30
2023-05-05T15:38:49.755Z,35.81
2023-05-05T15:41:17.181Z,36.61
2023-05-05T15:43:44.728Z,36.28
2023-05-05T15:46:12.284Z,37.11
2023-05-05T15:48:39.727Z,36.77
2023-05-05T15:51:06.994Z,35.79
2023-05-05T15:53:34.077Z,35.17
2023-05-05T15:56:01.404Z,35.13
2023-05-05T15:58:28.366Z,33.89
2023-05-05T16:00:55.728Z,30.69
2023-05-05T16:03:22.901Z,29.62
2023-05-05T16:05:50.259Z,29.34
2023-05-05T16:08:17.406Z,29.84
2023-05-05T16:10:44.842Z,29.83
2023-05-05T16:13:11.933Z,29.61
2023-05-05T16:15:39.281Z,30.72
2023-05-05T16:18:06.767Z,31.91
2023-05-05T16:20:34.355Z,32.02
2023-05-05T16:23:01.622Z,31.85
2023-05-05T16:25:28.888Z,31.38
2023-05-05T16:27:57.697Z,32.12
2023-05-05T16:30:24.975Z,33.05
2023-05-05T16:32:52.471Z,35.32
2023-05-05T16:35:20.641Z,36.90
2023-05-05T16:37:48.150Z,36.53
2023-05-05T16:40:15.515Z,35.90
2023-05-05T16:42:44.499Z,33.64
2023-05-05T16:45:12.457Z,33.13
2023-05-05T16:47:39.639Z,32.80
2023-05-05T16:50:08.247Z,33.71
2023-05-05T16:52:35.281Z,33.79
2023-05-05T16:55:04.898Z,34.04
2023-05-05T16:57:32.336Z,35.29
2023-05-05T16:59:59.688Z,38.35
2023-05-05T17:02:26.875Z,39.20
2023-05-05T17:04:54.530Z,39.53
2023-05-05T17:07:22.090Z,38.33
2023-05-05T17:09:49.575Z,39.21
2023-05-05T17:12:16.861Z,39.34
2023-05-05T17:14:45.582Z,39.07
2023-05-05T17:17:13.221Z,38.35
2023-05-05T17:19:40.964Z,36.40
2023-05-05T17:22:09.247Z,37.40
2023-05-05T17:24:37.060Z,37.42
2023-05-05T17:27:05.033Z,37.52
2023-05-05T17:29:35.836Z,38.31
2023-05-05T17:32:03.245Z,41.23
2023-05-05T17:34:30.738Z,43.41
2023-05-05T17:36:57.969Z,44.76
2023-05-05T17:39:25.485Z,46.71
2023-05-05T17:41:52.704Z,47.85
2023-05-05T17:44:20.200Z,49.08
2023-05-05T17:46:47.826Z,49.94
2023-05-05T17:49:15.414Z,50.85
2023-05-05T17:51:42.401Z,51.73
2023-05-05T17:54:10.170Z,53.02
2023-05-05T17:56:38.448Z,54.33
2023-05-05T17:59:06.377Z,55.61
2023-05-05T18:01:34.023Z,56.55
2023-05-05T18:04:01.964Z,57.71
2023-05-05T18:06:29.580Z,59.06
2023-05-05T18:08:57.718Z,59.78
2023-05-05T18:11:28.048Z,61.11
2023-05-05T18:13:56.649Z,61.96
2023-05-05T18:16:24.251Z,62.63
2023-05-05T18:18:52.064Z,62.75
2023-05-05T18:21:19.549Z,63.45
2023-05-05T18:23:46.943Z,64.32
2023-05-05T18:26:14.294Z,64.75
2023-05-05T18:28:41.888Z,65.99
2023-05-05T18:31:08.998Z,65.61
2023-05-05T18:33:36.525Z,66.28
2023-05-05T18:36:03.918Z,66.93
2023-05-05T18:38:32.781Z,67.48
2023-05-05T18:41:00.212Z,67.84
2023-05-05T18:43:27.605Z,68.32
2023-05-05T18:45:54.916Z,69.12
2023-05-05T18:48:22.616Z,69.30
2023-05-05T18:50:51.539Z,69.44
2023-05-05T18:53:18.980Z,69.36
2023-05-05T18:55:47.148Z,69.54
2023-05-05T18:58:15.179Z,69.86
2023-05-05T19:00:42.275Z,70.14
2023-05-05T19:03:10.253Z,70.65
2023-05-05T19:05:37.238Z,70.54
2023-05-05T19:08:05.245Z,71.08
2023-05-05T19:10:32.562Z,71.33
2023-05-05T19:12:59.998Z,71.79
2023-05-05T19:15:27.336Z,71.86
2023-05-05T19:17:55.166Z,71.60
2023-05-05T19:20:22.382Z,72.39
2023-05-05T19:22:50.228Z,72.40
2023-05-05T19:25:17.567Z,72.66
2023-05-05T19:27:45.341Z,74.11
2023-05-05T19:30:12.684Z,74.15
2023-05-05T19:32:40.196Z,74.91
2023-05-05T19:35:10.572Z,75.34
2023-05-05T19:37:38.916Z,75.35
2023-05-05T19:40:07.007Z,75.80
2023-05-05T19:42:34.913Z,77.22
2023-05-05T19:45:02.349Z,78.79
2023-05-05T19:47:29.673Z,79.88
2023-05-05T19:49:56.946Z,80.75
2023-05-05T19:52:24.910Z,81.27
2023-05-05T19:54:52.006Z,81.60
2023-05-05T19:57:19.309Z,81.60
2023-05-05T19:59:49.649Z,82.06
2023-05-05T20:02:22.159Z,82.54
2023-05-05T20:04:49.826Z,81.87
2023-05-05T20:07:18.010Z,81.77
2023-05-05T20:09:45.284Z,81.56
2023-05-05T20:12:13.249Z,82.20
2023-05-05T20:14:40.394Z,83.70
2023-05-05T20:17:08.030Z,84.68
2023-05-05T20:19:35.292Z,86.07
2023-05-05T20:22:02.763Z,86.32
2023-05-05T20:24:30.155Z,86.93
2023-05-05T20:26:57.664Z,86.78
2023-05-05T20:29:24.666Z,87.12
2023-05-05T20:31:52.065Z,87.76
2023-05-05T20:34:19.175Z,87.91
2023-05-05T20:36:46.503Z,88.45
2023-05-05T20:39:16.832Z,87.79
2023-05-05T20:41:43.783Z,87.42
2023-05-05T20:44:11.269Z,86.86
2023-05-05T20:46:38.366Z,86.98
2023-05-05T20:49:05.780Z,86.69
2023-05-05T20:51:35.147Z,87.01
2023-05-05T20:54:03.122Z,86.64
2023-05-05T20:56:30.129Z,86.51
2023-05-05T20:58:57.477Z,86.32
2023-05-05T21:01:24.668Z,86.54
2023-05-05T21:03:51.985Z,86.27
2023-05-05T21:06:19.684Z,85.55
2023-05-05T21:08:47.328Z,85.75
2023-05-05T21:11:14.426Z,86.13
2023-05-05T21:13:41.686Z,85.46
2023-05-05T21:16:09.584Z,85.63
2023-05-05T21:18:36.877Z,85.82
2023-05-05T21:21:03.914Z,85.07
2023-05-05T21:23:31.444Z,85.48
2023-05-05T21:25:59.680Z,85.69
2023-05-05T21:28:26.924Z,85.70
2023-05-05T21:33:24.048Z,86.05
2023-05-05T21:35:51.037Z,85.96
2023-05-05T21:38:18.302Z,86.33
2023-05-05T21:40:45.373Z,87.03
2023-05-05T21:43:12.729Z,87.79
2023-05-05T21:45:40.588Z,88.92
2023-05-05T21:48:07.923Z,89.57
2023-05-05T21:50:36.728Z,88.67
2023-05-05T21:53:04.055Z,88.83
2023-05-05T21:55:31.027Z,89.32
2023-05-05T21:57:58.340Z,89.43
2023-05-05T22:00:25.833Z,90.41
2023-05-05T22:02:53.367Z,90.48
2023-05-05T22:05:20.588Z,90.83
2023-05-05T22:07:47.935Z,91.60
2023-05-05T22:10:15.111Z,92.09
2023-05-05T22:12:42.404Z,92.43
2023-05-05T22:15:10.109Z,92.86
2023-05-05T22:17:37.595Z,93.93
2023-05-05T22:20:05.245Z,94.40
2023-05-05T22:22:32.842Z,94.52
2023-05-05T22:25:00.043Z,94.20
2023-05-05T22:27:27.498Z,93.99
2023-05-05T22:29:54.454Z,93.97
2023-05-05T22:32:21.807Z,93.31
2023-05-05T22:34:48.895Z,93.56
2023-05-05T22:37:16.618Z,93.21
2023-05-05T22:39:43.507Z,94.05
2023-05-05T22:42:10.826Z,93.20
2023-05-05T22:44:39.009Z,93.58
2023-05-05T22:47:07.153Z,94.39
2023-05-05T22:49:34.369Z,95.44
2023-05-05T22:52:02.331Z,95.79
2023-05-05T22:54:29.370Z,96.39
2023-05-05T22:56:56.672Z,96.33
2023-05-05T22:59:23.777Z,96.50
2023-05-05T23:01:50.955Z,96.50
2023-05-05T23:04:18.032Z,97.22
2023-05-05T23:06:46.494Z,97.66
2023-05-05T23:09:13.428Z,98.10
2023-05-05T23:11:40.740Z,98.08
2023-05-05T23:14:08.142Z,98.73
2023-05-05T23:16:35.447Z,99.13
2023-05-05T23:19:02.359Z,99.86
2023-05-05T23:21:32.060Z,100.00
2023-05-05T23:24:00.911Z,100.00
2023-05-05T23:26:28.298Z,100.00
2023-05-05T23:28:55.432Z,100.00
2023-05-05T23:31:22.809Z,100.00
2023-05-05T23:33:50.226Z,100.00
2023-05-05T23:36:18.198Z,100.00
2023-05-05T23:38:45.797Z,100.00
2023-05-05T23:41:13.067Z,100.00
2023-05-05T23:43:39.979Z,100.00
2023-05-05T23:46:07.325Z,100.00
2023-05-05T23:48:34.422Z,100.00
2023-05-05T23:51:01.748Z,100.00
2023-05-05T23:53:28.720Z,100.00
2023-05-05T23:55:56.800Z,100.00
2023-05-05T23:58:23.819Z,100.00
